sensor_id;sensor_type;location;lat;lon;timestamp;temperature;humidity
12520;DHT22;6325;49.540;8.364;2023-03-01T00:01:34;0.60;99.90
12520;DHT22;6325;49.540;8.364;2023-03-01T00:04:02;0.40;99.90
12520;DHT22;6325;49.540;8.364;2023-03-01T00:06:29;0.70;99.90
12520;DHT22;6325;49.540;8.364;2023-03-01T00:08:56;1.20;99.90
12520;DHT22;6325;49.540;8.364;2023-03-01T00:11:26;0.60;99.90
12520;DHT22;6325;49.540;8.364;2023-03-01T00:13:55;0.20;99.90
12520;DHT22;6325;49.540;8.364;2023-03-01T00:16:24;0.60;99.90
12520;DHT22;6325;49.540;8.364;2023-03-01T00:18:52;0.60;99.90
12520;DHT22;6325;49.540;8.364;2023-03-01T00:21:22;0.80;99.90
12520;DHT22;6325;49.540;8.364;2023-03-01T00:23:50;0.50;99.90
12520;DHT22;6325;49.540;8.364;2023-03-01T00:26:18;0.90;99.90
12520;DHT22;6325;49.540;8.364;2023-03-01T00:28:45;0.60;99.90
12520;DHT22;6325;49.540;8.364;2023-03-01T00:31:14;0.40;99.90
12520;DHT22;6325;49.540;8.364;2023-03-01T00:33:41;0.40;99.90
12520;DHT22;6325;49.540;8.364;2023-03-01T00:36:10;0.50;99.90
12520;DHT22;6325;49.540;8.364;2023-03-01T00:38:40;0.90;99.90
12520;DHT22;6325;49.540;8.364;2023-03-01T00:41:11;1.00;99.90
12520;DHT22;6325;49.540;8.364;2023-03-01T00:43:38;0.50;99.90
12520;DHT22;6325;49.540;8.364;2023-03-01T00:46:08;0.70;99.90
12520;DHT22;6325;49.540;8.364;2023-03-01T00:48:36;0.90;99.90
12520;DHT22;6325;49.540;8.364;2023-03-01T00:51:07;0.40;99.90
12520;DHT22;6325;49.540;8.364;2023-03-01T00:53:35;1.00;99.90
12520;DHT22;6325;49.540;8.364;2023-03-01T00:56:04;0.80;99.90
12520;DHT22;6325;49.540;8.364;2023-03-01T00:58:32;0.90;99.90
12520;DHT22;6325;49.540;8.364;2023-03-01T01:00:59;0.50;99.90
12520;DHT22;6325;49.540;8.364;2023-03-01T01:03:26;0.50;99.90
12520;DHT22;6325;49.540;8.364;2023-03-01T01:05:53;0.60;99.90
12520;DHT22;6325;49.540;8.364;2023-03-01T01:08:20;0.60;99.90
12520;DHT22;6325;49.540;8.364;2023-03-01T01:10:47;0.20;99.90
12520;DHT22;6325;49.540;8.364;2023-03-01T01:13:16;0.10;99.90
12520;DHT22;6325;49.540;8.364;2023-03-01T01:15:42;0.60;99.90
12520;DHT22;6325;49.540;8.364;2023-03-01T01:18:09;-0.20;99.90
12520;DHT22;6325;49.540;8.364;2023-03-01T01:20:39;0.30;99.90
12520;DHT22;6325;49.540;8.364;2023-03-01T01:23:05;0.90;99.90
12520;DHT22;6325;49.540;8.364;2023-03-01T01:25:35;0.40;99.90
12520;DHT22;6325;49.540;8.364;2023-03-01T01:28:02;0.10;99.90
12520;DHT22;6325;49.540;8.364;2023-03-01T01:30:31;-0.20;99.90
12520;DHT22;6325;49.540;8.364;2023-03-01T01:32:58;0.50;99.90
12520;DHT22;6325;49.540;8.364;2023-03-01T01:35:26;0.30;99.90
12520;DHT22;6325;49.540;8.364;2023-03-01T01:37:54;0.00;99.90
12520;DHT22;6325;49.540;8.364;2023-03-01T01:40:20;0.60;99.90
12520;DHT22;6325;49.540;8.364;2023-03-01T01:42:47;0.40;99.90
12520;DHT22;6325;49.540;8.364;2023-03-01T01:45:33;0.80;99.90
12520;DHT22;6325;49.540;8.364;2023-03-01T01:48:04;0.10;99.90
12520;DHT22;6325;49.540;8.364;2023-03-01T01:50:35;0.50;99.90
12520;DHT22;6325;49.540;8.364;2023-03-01T01:53:07;0.10;99.90
12520;DHT22;6325;49.540;8.364;2023-03-01T01:55:37;0.40;99.90
12520;DHT22;6325;49.540;8.364;2023-03-01T01:58:08;0.00;99.90
12520;DHT22;6325;49.540;8.364;2023-03-01T02:00:38;0.60;99.90
12520;DHT22;6325;49.540;8.364;2023-03-01T02:03:09;0.40;99.90
12520;DHT22;6325;49.540;8.364;2023-03-01T02:05:41;0.20;99.90
12520;DHT22;6325;49.540;8.364;2023-03-01T02:08:11;-0.10;99.90
12520;DHT22;6325;49.540;8.364;2023-03-01T02:10:39;0.20;99.90
12520;DHT22;6325;49.540;8.364;2023-03-01T02:13:07;0.10;99.90
12520;DHT22;6325;49.540;8.364;2023-03-01T02:15:35;-0.10;99.90
12520;DHT22;6325;49.540;8.364;2023-03-01T02:18:05;0.00;99.90
12520;DHT22;6325;49.540;8.364;2023-03-01T02:20:35;0.10;99.90
12520;DHT22;6325;49.540;8.364;2023-03-01T02:23:07;0.30;99.90
12520;DHT22;6325;49.540;8.364;2023-03-01T02:25:40;-0.20;99.90
12520;DHT22;6325;49.540;8.364;2023-03-01T02:28:21;-0.10;99.90
12520;DHT22;6325;49.540;8.364;2023-03-01T02:30:49;-0.40;99.90
12520;DHT22;6325;49.540;8.364;2023-03-01T02:33:36;-0.40;99.90
12520;DHT22;6325;49.540;8.364;2023-03-01T02:36:07;0.10;99.90
12520;DHT22;6325;49.540;8.364;2023-03-01T02:38:34;0.40;99.90
12520;DHT22;6325;49.540;8.364;2023-03-01T02:41:03;-0.60;99.90
12520;DHT22;6325;49.540;8.364;2023-03-01T02:43:33;0.00;99.90
12520;DHT22;6325;49.540;8.364;2023-03-01T02:46:06;0.20;99.90
12520;DHT22;6325;49.540;8.364;2023-03-01T02:48:41;0.30;99.90
12520;DHT22;6325;49.540;8.364;2023-03-01T02:51:25;0.10;99.90
12520;DHT22;6325;49.540;8.364;2023-03-01T02:54:06;0.00;99.90
12520;DHT22;6325;49.540;8.364;2023-03-01T02:56:34;-0.10;99.90
12520;DHT22;6325;49.540;8.364;2023-03-01T02:59:03;-0.40;99.90
12520;DHT22;6325;49.540;8.364;2023-03-01T03:01:30;-0.20;99.90
12520;DHT22;6325;49.540;8.364;2023-03-01T03:04:04;0.30;99.90
12520;DHT22;6325;49.540;8.364;2023-03-01T03:06:31;0.20;99.90
12520;DHT22;6325;49.540;8.364;2023-03-01T03:08:58;0.10;99.90
12520;DHT22;6325;49.540;8.364;2023-03-01T03:11:25;0.30;99.90
12520;DHT22;6325;49.540;8.364;2023-03-01T03:13:52;0.50;99.90
12520;DHT22;6325;49.540;8.364;2023-03-01T03:16:21;-0.30;99.90
12520;DHT22;6325;49.540;8.364;2023-03-01T03:18:48;0.20;99.90
12520;DHT22;6325;49.540;8.364;2023-03-01T03:21:16;0.30;99.90
12520;DHT22;6325;49.540;8.364;2023-03-01T03:23:44;0.30;99.90
12520;DHT22;6325;49.540;8.364;2023-03-01T03:26:10;0.40;99.90
12520;DHT22;6325;49.540;8.364;2023-03-01T03:28:40;0.30;99.90
12520;DHT22;6325;49.540;8.364;2023-03-01T03:31:08;0.40;99.90
12520;DHT22;6325;49.540;8.364;2023-03-01T03:33:36;0.40;99.90
12520;DHT22;6325;49.540;8.364;2023-03-01T03:36:04;-0.40;99.90
12520;DHT22;6325;49.540;8.364;2023-03-01T03:38:31;0.40;99.90
12520;DHT22;6325;49.540;8.364;2023-03-01T03:41:02;0.50;99.90
12520;DHT22;6325;49.540;8.364;2023-03-01T03:43:31;0.40;99.90
12520;DHT22;6325;49.540;8.364;2023-03-01T03:45:59;0.40;99.90
12520;DHT22;6325;49.540;8.364;2023-03-01T03:48:26;0.30;99.90
12520;DHT22;6325;49.540;8.364;2023-03-01T03:50:56;0.20;99.90
12520;DHT22;6325;49.540;8.364;2023-03-01T03:53:24;0.60;99.90
12520;DHT22;6325;49.540;8.364;2023-03-01T03:55:52;-0.20;99.90
12520;DHT22;6325;49.540;8.364;2023-03-01T03:58:21;0.40;99.90
12520;DHT22;6325;49.540;8.364;2023-03-01T04:00:49;-0.40;99.90
12520;DHT22;6325;49.540;8.364;2023-03-01T04:03:18;-0.30;99.90
12520;DHT22;6325;49.540;8.364;2023-03-01T04:05:46;0.20;99.90
12520;DHT22;6325;49.540;8.364;2023-03-01T04:08:17;0.20;99.90
12520;DHT22;6325;49.540;8.364;2023-03-01T04:10:47;0.40;99.90
12520;DHT22;6325;49.540;8.364;2023-03-01T04:13:15;0.50;99.90
12520;DHT22;6325;49.540;8.364;2023-03-01T04:15:44;0.10;99.90
12520;DHT22;6325;49.540;8.364;2023-03-01T04:18:13;-0.20;99.90
12520;DHT22;6325;49.540;8.364;2023-03-01T04:20:41;-0.20;99.90
12520;DHT22;6325;49.540;8.364;2023-03-01T04:23:11;0.30;99.90
12520;DHT22;6325;49.540;8.364;2023-03-01T04:25:42;-0.10;99.90
12520;DHT22;6325;49.540;8.364;2023-03-01T04:28:11;0.10;99.90
12520;DHT22;6325;49.540;8.364;2023-03-01T04:30:38;0.40;99.90
12520;DHT22;6325;49.540;8.364;2023-03-01T04:33:08;0.20;99.90
12520;DHT22;6325;49.540;8.364;2023-03-01T04:35:36;-0.10;99.90
12520;DHT22;6325;49.540;8.364;2023-03-01T04:38:04;0.40;99.90
12520;DHT22;6325;49.540;8.364;2023-03-01T04:40:31;0.30;99.90
12520;DHT22;6325;49.540;8.364;2023-03-01T04:43:00;0.10;99.90
12520;DHT22;6325;49.540;8.364;2023-03-01T04:45:27;0.20;99.90
12520;DHT22;6325;49.540;8.364;2023-03-01T04:47:54;0.10;99.90
12520;DHT22;6325;49.540;8.364;2023-03-01T04:50:23;0.30;99.90
12520;DHT22;6325;49.540;8.364;2023-03-01T04:52:51;0.40;99.90
12520;DHT22;6325;49.540;8.364;2023-03-01T04:55:19;0.10;99.90
12520;DHT22;6325;49.540;8.364;2023-03-01T04:57:46;0.40;99.90
12520;DHT22;6325;49.540;8.364;2023-03-01T05:00:16;-0.10;99.90
12520;DHT22;6325;49.540;8.364;2023-03-01T05:02:50;0.00;99.90
12520;DHT22;6325;49.540;8.364;2023-03-01T05:05:25;0.40;99.90
12520;DHT22;6325;49.540;8.364;2023-03-01T05:07:53;0.00;99.90
12520;DHT22;6325;49.540;8.364;2023-03-01T05:10:21;0.10;99.90
12520;DHT22;6325;49.540;8.364;2023-03-01T05:12:48;-0.40;99.90
12520;DHT22;6325;49.540;8.364;2023-03-01T05:15:16;-0.50;99.90
12520;DHT22;6325;49.540;8.364;2023-03-01T05:17:43;0.60;99.90
12520;DHT22;6325;49.540;8.364;2023-03-01T05:20:11;0.60;99.90
12520;DHT22;6325;49.540;8.364;2023-03-01T05:22:38;0.40;99.90
12520;DHT22;6325;49.540;8.364;2023-03-01T05:25:05;0.40;99.90
12520;DHT22;6325;49.540;8.364;2023-03-01T05:27:33;0.10;99.90
12520;DHT22;6325;49.540;8.364;2023-03-01T05:30:00;-0.20;99.90
12520;DHT22;6325;49.540;8.364;2023-03-01T05:32:41;0.20;99.90
12520;DHT22;6325;49.540;8.364;2023-03-01T05:35:10;0.20;99.90
12520;DHT22;6325;49.540;8.364;2023-03-01T05:37:39;0.10;99.90
12520;DHT22;6325;49.540;8.364;2023-03-01T05:40:08;0.30;99.90
12520;DHT22;6325;49.540;8.364;2023-03-01T05:42:42;0.70;99.90
12520;DHT22;6325;49.540;8.364;2023-03-01T05:45:09;0.80;99.90
12520;DHT22;6325;49.540;8.364;2023-03-01T05:47:39;-0.30;99.90
12520;DHT22;6325;49.540;8.364;2023-03-01T05:50:13;-0.60;99.90
12520;DHT22;6325;49.540;8.364;2023-03-01T05:52:44;0.70;99.90
12520;DHT22;6325;49.540;8.364;2023-03-01T05:55:11;0.50;99.90
12520;DHT22;6325;49.540;8.364;2023-03-01T05:57:38;0.60;99.90
12520;DHT22;6325;49.540;8.364;2023-03-01T06:00:06;0.50;99.90
12520;DHT22;6325;49.540;8.364;2023-03-01T06:02:33;0.40;99.90
12520;DHT22;6325;49.540;8.364;2023-03-01T06:05:02;0.00;99.90
12520;DHT22;6325;49.540;8.364;2023-03-01T06:07:35;0.50;99.90
12520;DHT22;6325;49.540;8.364;2023-03-01T06:10:02;0.30;99.90
12520;DHT22;6325;49.540;8.364;2023-03-01T06:12:31;0.40;99.90
12520;DHT22;6325;49.540;8.364;2023-03-01T06:14:58;0.40;99.90
12520;DHT22;6325;49.540;8.364;2023-03-01T06:17:25;0.00;99.90
12520;DHT22;6325;49.540;8.364;2023-03-01T06:19:53;0.50;99.90
12520;DHT22;6325;49.540;8.364;2023-03-01T06:22:21;1.40;99.90
12520;DHT22;6325;49.540;8.364;2023-03-01T06:24:48;0.50;99.90
12520;DHT22;6325;49.540;8.364;2023-03-01T06:27:15;0.40;99.90
12520;DHT22;6325;49.540;8.364;2023-03-01T06:29:42;1.00;99.90
12520;DHT22;6325;49.540;8.364;2023-03-01T06:32:10;0.50;99.90
12520;DHT22;6325;49.540;8.364;2023-03-01T06:34:36;1.10;99.90
12520;DHT22;6325;49.540;8.364;2023-03-01T06:37:04;0.60;99.90
12520;DHT22;6325;49.540;8.364;2023-03-01T06:39:33;0.90;99.90
12520;DHT22;6325;49.540;8.364;2023-03-01T06:42:00;0.80;99.90
12520;DHT22;6325;49.540;8.364;2023-03-01T06:44:27;0.90;99.90
12520;DHT22;6325;49.540;8.364;2023-03-01T06:46:54;1.40;99.90
12520;DHT22;6325;49.540;8.364;2023-03-01T06:49:21;0.90;99.90
12520;DHT22;6325;49.540;8.364;2023-03-01T06:51:48;1.30;99.90
12520;DHT22;6325;49.540;8.364;2023-03-01T06:54:15;1.20;99.90
12520;DHT22;6325;49.540;8.364;2023-03-01T06:56:46;1.20;99.90
12520;DHT22;6325;49.540;8.364;2023-03-01T06:59:13;0.60;99.90
12520;DHT22;6325;49.540;8.364;2023-03-01T07:01:40;0.70;99.90
12520;DHT22;6325;49.540;8.364;2023-03-01T07:04:07;1.20;99.90
12520;DHT22;6325;49.540;8.364;2023-03-01T07:06:36;1.50;99.90
12520;DHT22;6325;49.540;8.364;2023-03-01T07:09:03;1.60;99.90
12520;DHT22;6325;49.540;8.364;2023-03-01T07:11:32;1.40;99.90
12520;DHT22;6325;49.540;8.364;2023-03-01T07:14:00;1.70;99.90
12520;DHT22;6325;49.540;8.364;2023-03-01T07:16:27;1.90;99.90
12520;DHT22;6325;49.540;8.364;2023-03-01T07:18:54;1.10;99.90
12520;DHT22;6325;49.540;8.364;2023-03-01T07:21:22;1.70;99.90
12520;DHT22;6325;49.540;8.364;2023-03-01T07:23:49;1.60;99.90
12520;DHT22;6325;49.540;8.364;2023-03-01T07:26:16;1.60;99.90
12520;DHT22;6325;49.540;8.364;2023-03-01T07:28:42;2.10;99.90
12520;DHT22;6325;49.540;8.364;2023-03-01T07:31:11;1.80;99.90
12520;DHT22;6325;49.540;8.364;2023-03-01T07:33:38;1.40;99.90
12520;DHT22;6325;49.540;8.364;2023-03-01T07:36:06;1.20;99.90
12520;DHT22;6325;49.540;8.364;2023-03-01T07:38:33;2.00;99.90
12520;DHT22;6325;49.540;8.364;2023-03-01T07:41:01;1.90;99.90
12520;DHT22;6325;49.540;8.364;2023-03-01T07:43:30;2.50;99.90
12520;DHT22;6325;49.540;8.364;2023-03-01T07:45:59;1.50;99.90
12520;DHT22;6325;49.540;8.364;2023-03-01T07:48:28;2.60;99.90
12520;DHT22;6325;49.540;8.364;2023-03-01T07:50:57;2.10;99.90
12520;DHT22;6325;49.540;8.364;2023-03-01T07:53:24;1.60;99.90
12520;DHT22;6325;49.540;8.364;2023-03-01T07:56:00;2.20;99.90
12520;DHT22;6325;49.540;8.364;2023-03-01T07:58:27;2.10;99.90
12520;DHT22;6325;49.540;8.364;2023-03-01T08:00:55;2.20;99.90
12520;DHT22;6325;49.540;8.364;2023-03-01T08:03:22;2.60;99.90
12520;DHT22;6325;49.540;8.364;2023-03-01T08:05:50;2.40;99.90
12520;DHT22;6325;49.540;8.364;2023-03-01T08:08:17;2.80;99.90
12520;DHT22;6325;49.540;8.364;2023-03-01T08:10:43;2.10;99.90
12520;DHT22;6325;49.540;8.364;2023-03-01T08:13:10;2.60;99.90
12520;DHT22;6325;49.540;8.364;2023-03-01T08:15:37;2.70;99.90
12520;DHT22;6325;49.540;8.364;2023-03-01T08:18:04;2.70;99.90
12520;DHT22;6325;49.540;8.364;2023-03-01T08:20:32;2.70;99.90
12520;DHT22;6325;49.540;8.364;2023-03-01T08:23:00;2.80;99.90
12520;DHT22;6325;49.540;8.364;2023-03-01T08:25:27;2.80;99.90
12520;DHT22;6325;49.540;8.364;2023-03-01T08:27:53;3.00;99.90
12520;DHT22;6325;49.540;8.364;2023-03-01T08:30:20;2.20;99.90
12520;DHT22;6325;49.540;8.364;2023-03-01T08:32:49;3.10;99.90
12520;DHT22;6325;49.540;8.364;2023-03-01T08:35:17;3.30;99.90
12520;DHT22;6325;49.540;8.364;2023-03-01T08:37:44;2.80;99.90
12520;DHT22;6325;49.540;8.364;2023-03-01T08:40:14;3.40;99.90
12520;DHT22;6325;49.540;8.364;2023-03-01T08:42:41;3.40;99.90
12520;DHT22;6325;49.540;8.364;2023-03-01T08:45:10;3.90;99.90
12520;DHT22;6325;49.540;8.364;2023-03-01T08:47:37;3.50;99.90
12520;DHT22;6325;49.540;8.364;2023-03-01T08:50:05;3.50;99.90
12520;DHT22;6325;49.540;8.364;2023-03-01T08:52:32;3.10;99.90
12520;DHT22;6325;49.540;8.364;2023-03-01T08:54:59;3.40;99.90
12520;DHT22;6325;49.540;8.364;2023-03-01T08:57:29;3.80;99.90
12520;DHT22;6325;49.540;8.364;2023-03-01T08:59:56;3.80;99.90
12520;DHT22;6325;49.540;8.364;2023-03-01T09:02:23;4.40;99.90
12520;DHT22;6325;49.540;8.364;2023-03-01T09:04:50;3.50;99.90
12520;DHT22;6325;49.540;8.364;2023-03-01T09:07:17;3.30;99.90
12520;DHT22;6325;49.540;8.364;2023-03-01T09:09:44;3.80;99.90
12520;DHT22;6325;49.540;8.364;2023-03-01T09:12:11;3.40;99.90
12520;DHT22;6325;49.540;8.364;2023-03-01T09:14:39;4.00;99.90
12520;DHT22;6325;49.540;8.364;2023-03-01T09:17:07;4.60;99.90
12520;DHT22;6325;49.540;8.364;2023-03-01T09:19:34;4.50;99.90
12520;DHT22;6325;49.540;8.364;2023-03-01T09:22:03;4.60;99.90
12520;DHT22;6325;49.540;8.364;2023-03-01T09:24:30;4.50;99.90
12520;DHT22;6325;49.540;8.364;2023-03-01T09:26:57;4.30;99.90
12520;DHT22;6325;49.540;8.364;2023-03-01T09:29:24;4.60;99.90
12520;DHT22;6325;49.540;8.364;2023-03-01T09:31:53;5.20;99.90
12520;DHT22;6325;49.540;8.364;2023-03-01T09:34:20;4.50;99.90
12520;DHT22;6325;49.540;8.364;2023-03-01T09:36:49;4.60;99.90
12520;DHT22;6325;49.540;8.364;2023-03-01T09:39:16;4.50;99.90
12520;DHT22;6325;49.540;8.364;2023-03-01T09:41:47;5.40;99.90
12520;DHT22;6325;49.540;8.364;2023-03-01T09:44:28;5.20;99.90
12520;DHT22;6325;49.540;8.364;2023-03-01T09:46:58;5.00;99.90
12520;DHT22;6325;49.540;8.364;2023-03-01T09:49:28;5.60;99.90
12520;DHT22;6325;49.540;8.364;2023-03-01T09:52:10;5.90;99.90
12520;DHT22;6325;49.540;8.364;2023-03-01T09:54:41;5.60;99.90
12520;DHT22;6325;49.540;8.364;2023-03-01T09:57:18;5.20;99.90
12520;DHT22;6325;49.540;8.364;2023-03-01T10:00:00;5.30;99.90
12520;DHT22;6325;49.540;8.364;2023-03-01T10:02:39;5.40;99.90
12520;DHT22;6325;49.540;8.364;2023-03-01T10:05:34;5.60;99.90
12520;DHT22;6325;49.540;8.364;2023-03-01T10:08:24;5.20;99.90
12520;DHT22;6325;49.540;8.364;2023-03-01T10:10:56;5.40;99.90
12520;DHT22;6325;49.540;8.364;2023-03-01T10:13:29;6.40;99.90
12520;DHT22;6325;49.540;8.364;2023-03-01T10:16:03;5.80;99.90
12520;DHT22;6325;49.540;8.364;2023-03-01T10:18:34;5.90;99.90
12520;DHT22;6325;49.540;8.364;2023-03-01T10:21:13;6.40;99.90
12520;DHT22;6325;49.540;8.364;2023-03-01T10:23:40;6.70;99.90
12520;DHT22;6325;49.540;8.364;2023-03-01T10:26:21;6.90;99.90
12520;DHT22;6325;49.540;8.364;2023-03-01T10:28:58;7.00;99.90
12520;DHT22;6325;49.540;8.364;2023-03-01T10:31:36;7.00;99.90
12520;DHT22;6325;49.540;8.364;2023-03-01T10:34:10;6.80;99.90
12520;DHT22;6325;49.540;8.364;2023-03-01T10:36:39;7.80;99.90
12520;DHT22;6325;49.540;8.364;2023-03-01T10:39:13;7.40;99.90
12520;DHT22;6325;49.540;8.364;2023-03-01T10:41:53;7.50;99.90
12520;DHT22;6325;49.540;8.364;2023-03-01T10:44:42;7.80;99.90
12520;DHT22;6325;49.540;8.364;2023-03-01T10:47:15;8.00;99.90
12520;DHT22;6325;49.540;8.364;2023-03-01T10:49:54;8.40;99.90
12520;DHT22;6325;49.540;8.364;2023-03-01T10:52:24;8.30;99.90
12520;DHT22;6325;49.540;8.364;2023-03-01T10:54:54;7.90;99.90
12520;DHT22;6325;49.540;8.364;2023-03-01T10:57:34;7.70;99.90
12520;DHT22;6325;49.540;8.364;2023-03-01T11:00:19;8.10;99.90
12520;DHT22;6325;49.540;8.364;2023-03-01T11:02:50;8.10;99.90
12520;DHT22;6325;49.540;8.364;2023-03-01T11:05:22;8.20;99.90
12520;DHT22;6325;49.540;8.364;2023-03-01T11:07:52;8.70;99.90
12520;DHT22;6325;49.540;8.364;2023-03-01T11:10:21;7.90;99.90
12520;DHT22;6325;49.540;8.364;2023-03-01T11:12:50;8.70;99.90
12520;DHT22;6325;49.540;8.364;2023-03-01T11:15:23;8.40;99.90
12520;DHT22;6325;49.540;8.364;2023-03-01T11:17:51;7.90;99.90
12520;DHT22;6325;49.540;8.364;2023-03-01T11:20:25;8.90;99.90
12520;DHT22;6325;49.540;8.364;2023-03-01T11:22:54;8.70;99.90
12520;DHT22;6325;49.540;8.364;2023-03-01T11:25:25;8.90;99.90
12520;DHT22;6325;49.540;8.364;2023-03-01T11:27:53;9.10;99.30
12520;DHT22;6325;49.540;8.364;2023-03-01T11:30:24;9.10;99.90
12520;DHT22;6325;49.540;8.364;2023-03-01T11:33:01;9.30;99.90
12520;DHT22;6325;49.540;8.364;2023-03-01T11:35:32;8.80;99.20
12520;DHT22;6325;49.540;8.364;2023-03-01T11:38:09;8.70;99.80
12520;DHT22;6325;49.540;8.364;2023-03-01T11:40:46;9.70;99.00
12520;DHT22;6325;49.540;8.364;2023-03-01T11:43:19;9.30;98.10
12520;DHT22;6325;49.540;8.364;2023-03-01T11:45:58;9.50;97.80
12520;DHT22;6325;49.540;8.364;2023-03-01T11:48:39;8.90;97.80
12520;DHT22;6325;49.540;8.364;2023-03-01T11:51:18;9.40;97.50
12520;DHT22;6325;49.540;8.364;2023-03-01T11:54:06;9.60;98.60
12520;DHT22;6325;49.540;8.364;2023-03-01T11:56:39;9.30;97.50
12520;DHT22;6325;49.540;8.364;2023-03-01T11:59:27;9.50;96.60
12520;DHT22;6325;49.540;8.364;2023-03-01T12:05:24;10.10;96.30
12520;DHT22;6325;49.540;8.364;2023-03-01T12:08:07;10.30;96.70
12520;DHT22;6325;49.540;8.364;2023-03-01T12:10:43;10.30;94.90
12520;DHT22;6325;49.540;8.364;2023-03-01T12:13:27;10.50;93.70
12520;DHT22;6325;49.540;8.364;2023-03-01T12:16:15;9.80;94.30
12520;DHT22;6325;49.540;8.364;2023-03-01T12:18:58;10.90;95.10
12520;DHT22;6325;49.540;8.364;2023-03-01T12:21:35;10.40;94.50
12520;DHT22;6325;49.540;8.364;2023-03-01T12:24:29;10.80;94.10
12520;DHT22;6325;49.540;8.364;2023-03-01T12:27:10;11.00;93.00
12520;DHT22;6325;49.540;8.364;2023-03-01T12:29:45;10.50;92.30
12520;DHT22;6325;49.540;8.364;2023-03-01T12:32:27;10.70;92.90
12520;DHT22;6325;49.540;8.364;2023-03-01T12:35:20;11.80;93.70
12520;DHT22;6325;49.540;8.364;2023-03-01T12:37:57;11.20;90.60
12520;DHT22;6325;49.540;8.364;2023-03-01T12:43:48;11.70;91.00
12520;DHT22;6325;49.540;8.364;2023-03-01T12:46:28;12.20;90.70
12520;DHT22;6325;49.540;8.364;2023-03-01T12:49:02;11.90;90.60
12520;DHT22;6325;49.540;8.364;2023-03-01T12:51:36;12.00;90.20
12520;DHT22;6325;49.540;8.364;2023-03-01T12:54:11;12.30;89.50
12520;DHT22;6325;49.540;8.364;2023-03-01T12:56:42;11.70;90.00
12520;DHT22;6325;49.540;8.364;2023-03-01T12:59:30;11.50;89.90
12520;DHT22;6325;49.540;8.364;2023-03-01T13:02:07;11.50;90.10
12520;DHT22;6325;49.540;8.364;2023-03-01T13:04:45;12.70;89.40
12520;DHT22;6325;49.540;8.364;2023-03-01T13:07:25;13.30;88.80
12520;DHT22;6325;49.540;8.364;2023-03-01T13:10:04;12.70;85.30
12520;DHT22;6325;49.540;8.364;2023-03-01T13:12:45;12.80;84.90
12520;DHT22;6325;49.540;8.364;2023-03-01T13:15:34;12.20;84.20
12520;DHT22;6325;49.540;8.364;2023-03-01T13:18:03;12.20;83.50
12520;DHT22;6325;49.540;8.364;2023-03-01T13:20:33;12.80;85.20
12520;DHT22;6325;49.540;8.364;2023-03-01T13:23:04;13.00;82.40
12520;DHT22;6325;49.540;8.364;2023-03-01T13:25:32;13.50;82.50
12520;DHT22;6325;49.540;8.364;2023-03-01T13:31:06;13.50;78.50
12520;DHT22;6325;49.540;8.364;2023-03-01T13:33:40;14.10;78.60
12520;DHT22;6325;49.540;8.364;2023-03-01T13:36:09;13.70;77.00
12520;DHT22;6325;49.540;8.364;2023-03-01T13:38:48;14.10;78.70
12520;DHT22;6325;49.540;8.364;2023-03-01T13:41:48;13.20;77.90
12520;DHT22;6325;49.540;8.364;2023-03-01T13:44:21;13.50;77.60
12520;DHT22;6325;49.540;8.364;2023-03-01T13:46:56;13.30;77.00
12520;DHT22;6325;49.540;8.364;2023-03-01T13:49:27;13.70;77.90
12520;DHT22;6325;49.540;8.364;2023-03-01T13:51:55;13.40;77.70
12520;DHT22;6325;49.540;8.364;2023-03-01T13:54:26;14.00;75.90
12520;DHT22;6325;49.540;8.364;2023-03-01T13:56:56;13.10;77.40
12520;DHT22;6325;49.540;8.364;2023-03-01T13:59:24;12.70;76.90
12520;DHT22;6325;49.540;8.364;2023-03-01T14:01:55;12.00;78.10
12520;DHT22;6325;49.540;8.364;2023-03-01T14:04:23;11.50;76.90
12520;DHT22;6325;49.540;8.364;2023-03-01T14:06:51;12.00;78.80
12520;DHT22;6325;49.540;8.364;2023-03-01T14:09:21;11.10;80.00
12520;DHT22;6325;49.540;8.364;2023-03-01T14:12:06;11.20;80.80
12520;DHT22;6325;49.540;8.364;2023-03-01T14:14:44;11.20;82.70
12520;DHT22;6325;49.540;8.364;2023-03-01T14:17:41;10.70;83.40
12520;DHT22;6325;49.540;8.364;2023-03-01T14:20:14;10.10;81.60
12520;DHT22;6325;49.540;8.364;2023-03-01T14:22:43;10.60;81.40
12520;DHT22;6325;49.540;8.364;2023-03-01T14:25:20;11.00;82.90
12520;DHT22;6325;49.540;8.364;2023-03-01T14:27:56;10.70;83.70
12520;DHT22;6325;49.540;8.364;2023-03-01T14:30:26;10.40;83.10
12520;DHT22;6325;49.540;8.364;2023-03-01T14:32:57;10.40;83.70
12520;DHT22;6325;49.540;8.364;2023-03-01T14:35:25;10.50;82.80
12520;DHT22;6325;49.540;8.364;2023-03-01T14:37:53;10.50;83.40
12520;DHT22;6325;49.540;8.364;2023-03-01T14:40:22;10.70;82.90
12520;DHT22;6325;49.540;8.364;2023-03-01T14:42:50;10.40;81.60
12520;DHT22;6325;49.540;8.364;2023-03-01T14:45:17;10.40;82.90
12520;DHT22;6325;49.540;8.364;2023-03-01T14:47:46;10.80;83.50
12520;DHT22;6325;49.540;8.364;2023-03-01T14:50:22;10.60;82.90
12520;DHT22;6325;49.540;8.364;2023-03-01T14:52:53;10.80;82.30
12520;DHT22;6325;49.540;8.364;2023-03-01T14:55:22;11.10;83.60
12520;DHT22;6325;49.540;8.364;2023-03-01T14:57:52;10.50;82.70
12520;DHT22;6325;49.540;8.364;2023-03-01T15:00:22;10.30;82.10
12520;DHT22;6325;49.540;8.364;2023-03-01T15:02:51;10.20;81.20
12520;DHT22;6325;49.540;8.364;2023-03-01T15:05:25;11.50;83.00
12520;DHT22;6325;49.540;8.364;2023-03-01T15:07:53;12.20;81.60
12520;DHT22;6325;49.540;8.364;2023-03-01T15:10:22;12.60;79.30
12520;DHT22;6325;49.540;8.364;2023-03-01T15:12:49;13.50;77.60
12520;DHT22;6325;49.540;8.364;2023-03-01T15:15:36;14.00;73.90
12520;DHT22;6325;49.540;8.364;2023-03-01T15:18:11;15.10;73.20
12520;DHT22;6325;49.540;8.364;2023-03-01T15:20:41;15.20;71.10
12520;DHT22;6325;49.540;8.364;2023-03-01T15:23:19;15.10;68.90
12520;DHT22;6325;49.540;8.364;2023-03-01T15:25:47;15.40;67.70
12520;DHT22;6325;49.540;8.364;2023-03-01T15:28:24;14.70;67.60
12520;DHT22;6325;49.540;8.364;2023-03-01T15:30:55;14.70;67.70
12520;DHT22;6325;49.540;8.364;2023-03-01T15:33:34;13.90;67.60
12520;DHT22;6325;49.540;8.364;2023-03-01T15:36:31;13.40;68.40
12520;DHT22;6325;49.540;8.364;2023-03-01T15:38:59;13.00;69.30
12520;DHT22;6325;49.540;8.364;2023-03-01T15:41:28;12.80;71.30
12520;DHT22;6325;49.540;8.364;2023-03-01T15:43:57;12.50;70.20
12520;DHT22;6325;49.540;8.364;2023-03-01T15:46:27;13.30;71.00
12520;DHT22;6325;49.540;8.364;2023-03-01T15:48:57;13.90;69.90
12520;DHT22;6325;49.540;8.364;2023-03-01T15:51:31;13.80;68.60
12520;DHT22;6325;49.540;8.364;2023-03-01T15:54:02;14.50;68.70
12520;DHT22;6325;49.540;8.364;2023-03-01T15:56:29;14.90;68.00
12520;DHT22;6325;49.540;8.364;2023-03-01T15:59:01;14.70;67.10
12520;DHT22;6325;49.540;8.364;2023-03-01T16:01:28;14.70;66.40
12520;DHT22;6325;49.540;8.364;2023-03-01T16:03:55;14.80;65.80
12520;DHT22;6325;49.540;8.364;2023-03-01T16:06:24;14.70;66.70
12520;DHT22;6325;49.540;8.364;2023-03-01T16:08:52;14.10;67.60
12520;DHT22;6325;49.540;8.364;2023-03-01T16:11:20;14.30;68.20
12520;DHT22;6325;49.540;8.364;2023-03-01T16:13:48;13.30;67.30
12520;DHT22;6325;49.540;8.364;2023-03-01T16:16:15;13.20;68.00
12520;DHT22;6325;49.540;8.364;2023-03-01T16:18:44;12.50;69.10
12520;DHT22;6325;49.540;8.364;2023-03-01T16:21:19;12.10;70.80
12520;DHT22;6325;49.540;8.364;2023-03-01T16:23:47;11.20;71.80
12520;DHT22;6325;49.540;8.364;2023-03-01T16:26:15;11.40;73.90
12520;DHT22;6325;49.540;8.364;2023-03-01T16:28:43;10.90;75.80
12520;DHT22;6325;49.540;8.364;2023-03-01T16:31:10;10.20;76.80